sensor_id;sensor_type;location;lat;lon;timestamp;P1;durP1;ratioP1;P2;durP2;ratioP2
7477;SDS011;3780;42.424;25.636;2023-04-06T00:00:12;7.22;;;5.65;;
7477;SDS011;3780;42.424;25.636;2023-04-06T00:02:38;6.05;;;5.45;;
7477;SDS011;3780;42.424;25.636;2023-04-06T00:05:03;6.40;;;5.80;;
7477;SDS011;3780;42.424;25.636;2023-04-06T00:07:29;17.67;;;5.90;;
7477;SDS011;3780;42.424;25.636;2023-04-06T00:09:54;7.22;;;5.97;;
7477;SDS011;3780;42.424;25.636;2023-04-06T00:12:20;6.22;;;5.63;;
7477;SDS011;3780;42.424;25.636;2023-04-06T00:14:45;6.30;;;5.70;;
7477;SDS011;3780;42.424;25.636;2023-04-06T00:17:11;5.45;;;4.95;;
7477;SDS011;3780;42.424;25.636;2023-04-06T00:19:36;5.70;;;5.20;;
7477;SDS011;3780;42.424;25.636;2023-04-06T00:22:02;5.82;;;5.30;;
7477;SDS011;3780;42.424;25.636;2023-04-06T00:24:27;6.97;;;5.97;;
7477;SDS011;3780;42.424;25.636;2023-04-06T00:26:53;6.07;;;5.43;;
7477;SDS011;3780;42.424;25.636;2023-04-06T00:29:18;8.18;;;5.72;;
7477;SDS011;3780;42.424;25.636;2023-04-06T00:31:43;5.60;;;5.10;;
7477;SDS011;3780;42.424;25.636;2023-04-06T00:34:09;6.25;;;5.38;;
7477;SDS011;3780;42.424;25.636;2023-04-06T00:36:35;6.80;;;6.10;;
7477;SDS011;3780;42.424;25.636;2023-04-06T00:39:00;6.47;;;5.30;;
7477;SDS011;3780;42.424;25.636;2023-04-06T00:41:25;6.57;;;5.97;;
7477;SDS011;3780;42.424;25.636;2023-04-06T00:43:51;6.68;;;5.05;;
7477;SDS011;3780;42.424;25.636;2023-04-06T00:46:16;6.20;;;5.05;;
7477;SDS011;3780;42.424;25.636;2023-04-06T00:48:41;6.60;;;5.22;;
7477;SDS011;3780;42.424;25.636;2023-04-06T00:51:07;6.30;;;5.60;;
7477;SDS011;3780;42.424;25.636;2023-04-06T00:53:32;6.00;;;5.43;;
7477;SDS011;3780;42.424;25.636;2023-04-06T00:55:57;6.20;;;5.60;;
7477;SDS011;3780;42.424;25.636;2023-04-06T00:58:23;6.18;;;5.50;;
7477;SDS011;3780;42.424;25.636;2023-04-06T01:00:48;6.53;;;5.93;;
7477;SDS011;3780;42.424;25.636;2023-04-06T01:03:14;12.20;;;10.10;;
7477;SDS011;3780;42.424;25.636;2023-04-06T01:05:39;22.23;;;19.67;;
7477;SDS011;3780;42.424;25.636;2023-04-06T01:08:08;18.27;;;16.27;;
7477;SDS011;3780;42.424;25.636;2023-04-06T01:10:34;19.83;;;17.77;;
7477;SDS011;3780;42.424;25.636;2023-04-06T01:12:59;8.60;;;6.75;;
7477;SDS011;3780;42.424;25.636;2023-04-06T01:15:25;7.20;;;6.50;;
7477;SDS011;3780;42.424;25.636;2023-04-06T01:17:50;6.30;;;5.70;;
7477;SDS011;3780;42.424;25.636;2023-04-06T01:20:16;7.30;;;5.93;;
7477;SDS011;3780;42.424;25.636;2023-04-06T01:22:41;9.52;;;8.35;;
7477;SDS011;3780;42.424;25.636;2023-04-06T01:25:07;7.72;;;6.47;;
7477;SDS011;3780;42.424;25.636;2023-04-06T01:27:32;14.05;;;12.63;;
7477;SDS011;3780;42.424;25.636;2023-04-06T01:29:58;20.02;;;14.05;;
7477;SDS011;3780;42.424;25.636;2023-04-06T01:32:23;15.13;;;13.63;;
7477;SDS011;3780;42.424;25.636;2023-04-06T01:34:49;8.70;;;7.82;;
7477;SDS011;3780;42.424;25.636;2023-04-06T01:37:14;13.77;;;11.45;;
7477;SDS011;3780;42.424;25.636;2023-04-06T01:39:40;15.27;;;13.75;;
7477;SDS011;3780;42.424;25.636;2023-04-06T01:42:06;19.42;;;15.60;;
7477;SDS011;3780;42.424;25.636;2023-04-06T01:44:31;32.80;;;25.73;;
7477;SDS011;3780;42.424;25.636;2023-04-06T01:46:56;19.60;;;15.82;;
7477;SDS011;3780;42.424;25.636;2023-04-06T01:49:22;20.35;;;17.02;;
7477;SDS011;3780;42.424;25.636;2023-04-06T01:51:47;24.13;;;19.35;;
7477;SDS011;3780;42.424;25.636;2023-04-06T01:54:12;37.17;;;28.02;;
7477;SDS011;3780;42.424;25.636;2023-04-06T01:56:38;34.80;;;25.30;;
7477;SDS011;3780;42.424;25.636;2023-04-06T01:59:03;25.35;;;18.67;;
7477;SDS011;3780;42.424;25.636;2023-04-06T02:01:29;46.05;;;33.80;;
7477;SDS011;3780;42.424;25.636;2023-04-06T02:03:54;40.33;;;23.90;;
7477;SDS011;3780;42.424;25.636;2023-04-06T02:06:20;28.20;;;18.23;;
7477;SDS011;3780;42.424;25.636;2023-04-06T02:08:45;47.75;;;20.80;;
7477;SDS011;3780;42.424;25.636;2023-04-06T02:11:11;37.75;;;20.35;;
7477;SDS011;3780;42.424;25.636;2023-04-06T02:13:36;25.23;;;18.58;;
7477;SDS011;3780;42.424;25.636;2023-04-06T02:16:01;23.00;;;18.20;;
7477;SDS011;3780;42.424;25.636;2023-04-06T02:18:27;28.73;;;18.23;;
7477;SDS011;3780;42.424;25.636;2023-04-06T02:20:53;18.38;;;13.00;;
7477;SDS011;3780;42.424;25.636;2023-04-06T02:23:18;18.52;;;13.40;;
7477;SDS011;3780;42.424;25.636;2023-04-06T02:25:44;23.60;;;15.88;;
7477;SDS011;3780;42.424;25.636;2023-04-06T02:28:09;23.63;;;15.73;;
7477;SDS011;3780;42.424;25.636;2023-04-06T02:30:35;23.38;;;17.38;;
7477;SDS011;3780;42.424;25.636;2023-04-06T02:33:00;25.08;;;17.38;;
7477;SDS011;3780;42.424;25.636;2023-04-06T02:35:27;20.83;;;17.65;;
7477;SDS011;3780;42.424;25.636;2023-04-06T02:37:53;31.63;;;22.42;;
7477;SDS011;3780;42.424;25.636;2023-04-06T02:40:18;27.30;;;22.27;;
7477;SDS011;3780;42.424;25.636;2023-04-06T02:42:44;26.80;;;20.45;;
7477;SDS011;3780;42.424;25.636;2023-04-06T02:45:09;22.10;;;17.95;;
7477;SDS011;3780;42.424;25.636;2023-04-06T02:47:35;19.88;;;15.98;;
7477;SDS011;3780;42.424;25.636;2023-04-06T02:50:00;18.55;;;16.63;;
7477;SDS011;3780;42.424;25.636;2023-04-06T02:52:26;20.27;;;16.27;;
7477;SDS011;3780;42.424;25.636;2023-04-06T02:54:51;20.35;;;16.58;;
7477;SDS011;3780;42.424;25.636;2023-04-06T02:57:17;17.48;;;14.93;;
7477;SDS011;3780;42.424;25.636;2023-04-06T02:59:42;15.15;;;13.30;;
7477;SDS011;3780;42.424;25.636;2023-04-06T03:02:08;15.93;;;13.40;;
7477;SDS011;3780;42.424;25.636;2023-04-06T03:04:33;16.75;;;14.68;;
7477;SDS011;3780;42.424;25.636;2023-04-06T03:06:58;21.90;;;15.45;;
7477;SDS011;3780;42.424;25.636;2023-04-06T03:09:23;15.90;;;14.20;;
7477;SDS011;3780;42.424;25.636;2023-04-06T03:11:49;20.88;;;15.90;;
7477;SDS011;3780;42.424;25.636;2023-04-06T03:14:14;13.70;;;11.23;;
7477;SDS011;3780;42.424;25.636;2023-04-06T03:16:42;20.45;;;15.65;;
7477;SDS011;3780;42.424;25.636;2023-04-06T03:19:07;31.80;;;19.77;;
7477;SDS011;3780;42.424;25.636;2023-04-06T03:21:32;27.33;;;19.83;;
7477;SDS011;3780;42.424;25.636;2023-04-06T03:23:58;47.53;;;25.58;;
7477;SDS011;3780;42.424;25.636;2023-04-06T03:26:23;36.63;;;24.02;;
7477;SDS011;3780;42.424;25.636;2023-04-06T03:28:48;24.10;;;19.85;;
7477;SDS011;3780;42.424;25.636;2023-04-06T03:31:14;21.55;;;19.20;;
7477;SDS011;3780;42.424;25.636;2023-04-06T03:33:39;35.50;;;24.02;;
7477;SDS011;3780;42.424;25.636;2023-04-06T03:36:05;37.05;;;23.75;;
7477;SDS011;3780;42.424;25.636;2023-04-06T03:38:31;31.98;;;22.15;;
7477;SDS011;3780;42.424;25.636;2023-04-06T03:40:57;35.63;;;24.13;;
7477;SDS011;3780;42.424;25.636;2023-04-06T03:43:22;34.03;;;21.00;;
7477;SDS011;3780;42.424;25.636;2023-04-06T03:45:47;33.15;;;22.92;;
7477;SDS011;3780;42.424;25.636;2023-04-06T03:48:13;35.53;;;22.63;;
7477;SDS011;3780;42.424;25.636;2023-04-06T03:50:38;34.05;;;23.00;;
7477;SDS011;3780;42.424;25.636;2023-04-06T03:53:05;40.60;;;23.35;;
7477;SDS011;3780;42.424;25.636;2023-04-06T03:55:30;46.95;;;22.70;;
7477;SDS011;3780;42.424;25.636;2023-04-06T03:57:55;36.58;;;21.77;;
7477;SDS011;3780;42.424;25.636;2023-04-06T04:00:21;35.80;;;21.92;;
7477;SDS011;3780;42.424;25.636;2023-04-06T04:02:47;38.08;;;20.67;;
7477;SDS011;3780;42.424;25.636;2023-04-06T04:05:12;45.83;;;24.77;;
7477;SDS011;3780;42.424;25.636;2023-04-06T04:07:37;46.55;;;24.17;;
7477;SDS011;3780;42.424;25.636;2023-04-06T04:10:03;57.42;;;25.83;;
7477;SDS011;3780;42.424;25.636;2023-04-06T04:12:28;53.22;;;27.30;;
7477;SDS011;3780;42.424;25.636;2023-04-06T04:14:53;60.67;;;25.30;;
7477;SDS011;3780;42.424;25.636;2023-04-06T04:17:19;41.67;;;23.17;;
7477;SDS011;3780;42.424;25.636;2023-04-06T04:19:44;47.28;;;25.98;;
7477;SDS011;3780;42.424;25.636;2023-04-06T04:22:10;53.78;;;25.13;;
7477;SDS011;3780;42.424;25.636;2023-04-06T04:24:35;44.63;;;23.75;;
7477;SDS011;3780;42.424;25.636;2023-04-06T04:27:00;59.20;;;26.30;;
7477;SDS011;3780;42.424;25.636;2023-04-06T04:29:26;49.47;;;23.75;;
7477;SDS011;3780;42.424;25.636;2023-04-06T04:31:51;47.50;;;24.65;;
7477;SDS011;3780;42.424;25.636;2023-04-06T04:34:17;48.63;;;20.50;;
7477;SDS011;3780;42.424;25.636;2023-04-06T04:36:45;37.08;;;20.65;;
7477;SDS011;3780;42.424;25.636;2023-04-06T04:39:10;28.83;;;19.13;;
7477;SDS011;3780;42.424;25.636;2023-04-06T04:41:35;35.80;;;21.73;;
7477;SDS011;3780;42.424;25.636;2023-04-06T04:44:01;36.05;;;22.40;;
7477;SDS011;3780;42.424;25.636;2023-04-06T04:46:26;32.90;;;21.35;;
7477;SDS011;3780;42.424;25.636;2023-04-06T04:48:51;41.50;;;24.98;;
7477;SDS011;3780;42.424;25.636;2023-04-06T04:51:17;46.92;;;29.08;;
7477;SDS011;3780;42.424;25.636;2023-04-06T04:53:42;54.90;;;31.67;;
7477;SDS011;3780;42.424;25.636;2023-04-06T04:56:07;58.33;;;32.78;;
7477;SDS011;3780;42.424;25.636;2023-04-06T04:58:33;43.83;;;30.30;;
7477;SDS011;3780;42.424;25.636;2023-04-06T05:00:58;63.50;;;40.35;;
7477;SDS011;3780;42.424;25.636;2023-04-06T05:03:24;64.68;;;41.53;;
7477;SDS011;3780;42.424;25.636;2023-04-06T05:05:51;59.60;;;31.30;;
7477;SDS011;3780;42.424;25.636;2023-04-06T05:08:17;60.50;;;31.33;;
7477;SDS011;3780;42.424;25.636;2023-04-06T05:10:42;48.33;;;29.63;;
7477;SDS011;3780;42.424;25.636;2023-04-06T05:13:09;60.30;;;33.40;;
7477;SDS011;3780;42.424;25.636;2023-04-06T05:15:34;52.83;;;30.25;;
7477;SDS011;3780;42.424;25.636;2023-04-06T05:18:03;59.45;;;28.73;;
7477;SDS011;3780;42.424;25.636;2023-04-06T05:20:28;61.20;;;28.75;;
7477;SDS011;3780;42.424;25.636;2023-04-06T05:22:53;56.40;;;28.02;;
7477;SDS011;3780;42.424;25.636;2023-04-06T05:25:19;68.43;;;30.83;;
7477;SDS011;3780;42.424;25.636;2023-04-06T05:27:44;66.60;;;33.42;;
7477;SDS011;3780;42.424;25.636;2023-04-06T05:30:09;65.80;;;30.45;;
7477;SDS011;3780;42.424;25.636;2023-04-06T05:32:36;61.78;;;30.00;;
7477;SDS011;3780;42.424;25.636;2023-04-06T05:35:02;53.53;;;27.75;;
7477;SDS011;3780;42.424;25.636;2023-04-06T05:37:27;53.95;;;25.75;;
7477;SDS011;3780;42.424;25.636;2023-04-06T05:39:52;39.88;;;26.02;;
7477;SDS011;3780;42.424;25.636;2023-04-06T05:42:18;48.75;;;27.27;;
7477;SDS011;3780;42.424;25.636;2023-04-06T05:44:43;45.83;;;27.45;;
7477;SDS011;3780;42.424;25.636;2023-04-06T05:47:08;51.53;;;27.92;;
7477;SDS011;3780;42.424;25.636;2023-04-06T05:49:34;75.50;;;40.47;;
7477;SDS011;3780;42.424;25.636;2023-04-06T05:52:00;41.75;;;26.92;;
7477;SDS011;3780;42.424;25.636;2023-04-06T05:54:25;68.72;;;33.08;;
7477;SDS011;3780;42.424;25.636;2023-04-06T05:56:51;46.70;;;25.00;;
7477;SDS011;3780;42.424;25.636;2023-04-06T05:59:16;50.30;;;25.95;;
7477;SDS011;3780;42.424;25.636;2023-04-06T06:01:41;48.13;;;25.70;;
7477;SDS011;3780;42.424;25.636;2023-04-06T06:04:07;30.77;;;19.48;;
7477;SDS011;3780;42.424;25.636;2023-04-06T06:06:32;28.35;;;18.52;;
7477;SDS011;3780;42.424;25.636;2023-04-06T06:08:57;28.48;;;14.88;;
7477;SDS011;3780;42.424;25.636;2023-04-06T06:11:25;18.33;;;11.63;;
7477;SDS011;3780;42.424;25.636;2023-04-06T06:13:51;12.52;;;11.23;;
7477;SDS011;3780;42.424;25.636;2023-04-06T06:16:16;18.05;;;12.13;;
7477;SDS011;3780;42.424;25.636;2023-04-06T06:18:42;13.57;;;12.18;;
7477;SDS011;3780;42.424;25.636;2023-04-06T06:21:07;20.50;;;12.10;;
7477;SDS011;3780;42.424;25.636;2023-04-06T06:23:33;12.38;;;10.80;;
7477;SDS011;3780;42.424;25.636;2023-04-06T06:25:58;13.10;;;10.65;;
7477;SDS011;3780;42.424;25.636;2023-04-06T06:28:26;13.85;;;11.18;;
7477;SDS011;3780;42.424;25.636;2023-04-06T06:30:51;15.45;;;12.15;;
7477;SDS011;3780;42.424;25.636;2023-04-06T06:33:17;15.20;;;12.40;;
7477;SDS011;3780;42.424;25.636;2023-04-06T06:35:42;21.98;;;13.07;;
7477;SDS011;3780;42.424;25.636;2023-04-06T06:38:07;15.88;;;12.32;;
7477;SDS011;3780;42.424;25.636;2023-04-06T06:40:33;20.13;;;12.60;;
7477;SDS011;3780;42.424;25.636;2023-04-06T06:42:58;16.23;;;13.50;;
7477;SDS011;3780;42.424;25.636;2023-04-06T06:45:24;21.35;;;13.90;;
7477;SDS011;3780;42.424;25.636;2023-04-06T06:47:50;24.45;;;15.85;;
7477;SDS011;3780;42.424;25.636;2023-04-06T06:50:15;21.35;;;14.20;;
7477;SDS011;3780;42.424;25.636;2023-04-06T06:52:41;12.23;;;10.63;;
7477;SDS011;3780;42.424;25.636;2023-04-06T06:55:07;15.55;;;10.02;;
7477;SDS011;3780;42.424;25.636;2023-04-06T06:57:33;12.50;;;9.15;;
7477;SDS011;3780;42.424;25.636;2023-04-06T06:59:58;32.42;;;25.25;;
7477;SDS011;3780;42.424;25.636;2023-04-06T07:02:24;15.32;;;11.32;;
7477;SDS011;3780;42.424;25.636;2023-04-06T07:04:50;10.68;;;9.57;;
7477;SDS011;3780;42.424;25.636;2023-04-06T07:07:15;11.40;;;8.43;;
7477;SDS011;3780;42.424;25.636;2023-04-06T07:09:41;11.77;;;9.18;;
7477;SDS011;3780;42.424;25.636;2023-04-06T07:12:06;11.13;;;9.25;;
7477;SDS011;3780;42.424;25.636;2023-04-06T07:14:31;13.70;;;9.60;;
7477;SDS011;3780;42.424;25.636;2023-04-06T07:16:57;14.05;;;8.88;;
7477;SDS011;3780;42.424;25.636;2023-04-06T07:19:22;13.95;;;8.75;;
7477;SDS011;3780;42.424;25.636;2023-04-06T07:21:47;9.95;;;8.95;;
7477;SDS011;3780;42.424;25.636;2023-04-06T07:24:14;13.70;;;9.30;;
7477;SDS011;3780;42.424;25.636;2023-04-06T07:26:40;9.52;;;8.52;;
7477;SDS011;3780;42.424;25.636;2023-04-06T07:29:05;16.38;;;8.93;;
7477;SDS011;3780;42.424;25.636;2023-04-06T07:31:30;11.18;;;9.40;;
7477;SDS011;3780;42.424;25.636;2023-04-06T07:33:56;18.92;;;9.95;;
7477;SDS011;3780;42.424;25.636;2023-04-06T07:36:21;9.20;;;8.30;;
7477;SDS011;3780;42.424;25.636;2023-04-06T07:38:47;11.85;;;7.93;;
7477;SDS011;3780;42.424;25.636;2023-04-06T07:41:12;8.85;;;6.78;;
7477;SDS011;3780;42.424;25.636;2023-04-06T07:43:37;13.93;;;7.57;;
7477;SDS011;3780;42.424;25.636;2023-04-06T07:46:03;11.38;;;7.88;;
7477;SDS011;3780;42.424;25.636;2023-04-06T07:48:28;10.30;;;7.32;;
7477;SDS011;3780;42.424;25.636;2023-04-06T07:51:00;14.60;;;8.32;;
7477;SDS011;3780;42.424;25.636;2023-04-06T07:53:25;13.38;;;10.30;;
7477;SDS011;3780;42.424;25.636;2023-04-06T07:55:51;19.98;;;8.43;;
7477;SDS011;3780;42.424;25.636;2023-04-06T07:58:16;9.95;;;8.02;;
7477;SDS011;3780;42.424;25.636;2023-04-06T08:00:41;15.65;;;9.52;;
7477;SDS011;3780;42.424;25.636;2023-04-06T08:03:07;13.18;;;9.30;;
7477;SDS011;3780;42.424;25.636;2023-04-06T08:05:32;11.38;;;8.40;;
7477;SDS011;3780;42.424;25.636;2023-04-06T08:07:57;10.70;;;7.72;;
7477;SDS011;3780;42.424;25.636;2023-04-06T08:10:23;8.65;;;7.82;;
7477;SDS011;3780;42.424;25.636;2023-04-06T08:12:48;9.88;;;7.40;;
7477;SDS011;3780;42.424;25.636;2023-04-06T08:15:13;8.80;;;7.78;;
7477;SDS011;3780;42.424;25.636;2023-04-06T08:17:39;10.98;;;8.07;;
7477;SDS011;3780;42.424;25.636;2023-04-06T08:20:04;9.77;;;8.35;;
7477;SDS011;3780;42.424;25.636;2023-04-06T08:22:30;8.95;;;8.05;;
7477;SDS011;3780;42.424;25.636;2023-04-06T08:24:55;8.70;;;7.82;;
7477;SDS011;3780;42.424;25.636;2023-04-06T08:27:20;15.07;;;9.30;;
7477;SDS011;3780;42.424;25.636;2023-04-06T08:29:47;9.82;;;8.30;;
7477;SDS011;3780;42.424;25.636;2023-04-06T08:32:12;9.98;;;8.98;;
7477;SDS011;3780;42.424;25.636;2023-04-06T08:34:37;10.82;;;7.68;;
7477;SDS011;3780;42.424;25.636;2023-04-06T08:37:03;11.40;;;8.38;;
7477;SDS011;3780;42.424;25.636;2023-04-06T08:39:29;10.70;;;7.65;;
7477;SDS011;3780;42.424;25.636;2023-04-06T08:41:55;13.13;;;10.65;;
7477;SDS011;3780;42.424;25.636;2023-04-06T08:44:24;13.52;;;10.95;;
7477;SDS011;3780;42.424;25.636;2023-04-06T08:46:50;8.45;;;7.55;;
7477;SDS011;3780;42.424;25.636;2023-04-06T08:49:17;11.35;;;8.75;;
7477;SDS011;3780;42.424;25.636;2023-04-06T08:51:43;11.18;;;8.32;;
7477;SDS011;3780;42.424;25.636;2023-04-06T08:54:09;8.68;;;7.88;;
7477;SDS011;3780;42.424;25.636;2023-04-06T08:56:37;12.30;;;8.77;;
7477;SDS011;3780;42.424;25.636;2023-04-06T08:59:03;9.35;;;8.45;;
7477;SDS011;3780;42.424;25.636;2023-04-06T09:01:28;10.13;;;8.98;;
7477;SDS011;3780;42.424;25.636;2023-04-06T09:03:55;12.18;;;9.45;;
7477;SDS011;3780;42.424;25.636;2023-04-06T09:06:21;10.70;;;8.77;;
7477;SDS011;3780;42.424;25.636;2023-04-06T09:08:47;12.95;;;9.55;;
7477;SDS011;3780;42.424;25.636;2023-04-06T09:11:12;10.35;;;9.15;;
7477;SDS011;3780;42.424;25.636;2023-04-06T09:13:45;19.25;;;12.48;;
7477;SDS011;3780;42.424;25.636;2023-04-06T09:18:36;10.48;;;8.73;;
7477;SDS011;3780;42.424;25.636;2023-04-06T09:21:02;17.48;;;9.35;;
7477;SDS011;3780;42.424;25.636;2023-04-06T09:23:27;13.07;;;8.23;;
7477;SDS011;3780;42.424;25.636;2023-04-06T09:26:15;14.60;;;7.90;;
7477;SDS011;3780;42.424;25.636;2023-04-06T09:31:10;10.60;;;9.50;;
7477;SDS011;3780;42.424;25.636;2023-04-06T09:33:40;16.42;;;9.30;;
7477;SDS011;3780;42.424;25.636;2023-04-06T09:36:06;12.02;;;7.90;;
7477;SDS011;3780;42.424;25.636;2023-04-06T09:38:32;13.40;;;8.55;;
7477;SDS011;3780;42.424;25.636;2023-04-06T09:40:57;13.27;;;8.68;;
7477;SDS011;3780;42.424;25.636;2023-04-06T09:43:31;8.98;;;7.70;;
7477;SDS011;3780;42.424;25.636;2023-04-06T09:45:57;10.35;;;7.20;;
7477;SDS011;3780;42.424;25.636;2023-04-06T09:48:24;12.95;;;8.70;;
7477;SDS011;3780;42.424;25.636;2023-04-06T09:50:50;12.18;;;8.82;;
7477;SDS011;3780;42.424;25.636;2023-04-06T09:53:19;12.13;;;8.32;;
7477;SDS011;3780;42.424;25.636;2023-04-06T09:55:45;8.98;;;7.38;;
7477;SDS011;3780;42.424;25.636;2023-04-06T09:58:15;8.60;;;7.57;;
7477;SDS011;3780;42.424;25.636;2023-04-06T10:00:44;7.63;;;6.43;;
7477;SDS011;3780;42.424;25.636;2023-04-06T10:05:49;10.23;;;7.90;;
7477;SDS011;3780;42.424;25.636;2023-04-06T10:08:15;8.65;;;6.70;;
7477;SDS011;3780;42.424;25.636;2023-04-06T10:10:41;10.00;;;6.55;;
7477;SDS011;3780;42.424;25.636;2023-04-06T10:13:07;7.70;;;6.70;;
7477;SDS011;3780;42.424;25.636;2023-04-06T10:15:35;9.88;;;7.82;;
7477;SDS011;3780;42.424;25.636;2023-04-06T10:18:01;6.55;;;5.85;;
7477;SDS011;3780;42.424;25.636;2023-04-06T10:22:56;9.40;;;6.45;;
7477;SDS011;3780;42.424;25.636;2023-04-06T10:25:31;6.43;;;5.80;;
7477;SDS011;3780;42.424;25.636;2023-04-06T10:28:15;9.50;;;6.47;;
7477;SDS011;3780;42.424;25.636;2023-04-06T10:30:41;9.38;;;6.28;;
7477;SDS011;3780;42.424;25.636;2023-04-06T10:33:18;6.32;;;5.72;;
7477;SDS011;3780;42.424;25.636;2023-04-06T10:35:43;9.52;;;6.38;;
7477;SDS011;3780;42.424;25.636;2023-04-06T10:38:09;7.72;;;6.50;;
7477;SDS011;3780;42.424;25.636;2023-04-06T10:40:35;6.18;;;5.55;;
7477;SDS011;3780;42.424;25.636;2023-04-06T10:43:11;6.25;;;5.65;;
7477;SDS011;3780;42.424;25.636;2023-04-06T10:45:37;9.25;;;6.70;;
7477;SDS011;3780;42.424;25.636;2023-04-06T10:48:12;6.82;;;5.55;;
7477;SDS011;3780;42.424;25.636;2023-04-06T10:50:38;7.22;;;5.97;;
7477;SDS011;3780;42.424;25.636;2023-04-06T10:53:05;10.23;;;6.53;;
7477;SDS011;3780;42.424;25.636;2023-04-06T10:55:31;6.72;;;5.95;;
7477;SDS011;3780;42.424;25.636;2023-04-06T10:57:56;8.35;;;6.05;;
7477;SDS011;3780;42.424;25.636;2023-04-06T11:00:22;8.77;;;7.25;;
7477;SDS011;3780;42.424;25.636;2023-04-06T11:02:48;7.70;;;5.63;;
7477;SDS011;3780;42.424;25.636;2023-04-06T11:05:14;7.78;;;6.47;;
7477;SDS011;3780;42.424;25.636;2023-04-06T11:07:39;6.90;;;5.80;;
7477;SDS011;3780;42.424;25.636;2023-04-06T11:10:05;9.38;;;6.25;;
7477;SDS011;3780;42.424;25.636;2023-04-06T11:12:31;7.53;;;6.50;;
7477;SDS011;3780;42.424;25.636;2023-04-06T11:14:57;12.98;;;7.32;;
7477;SDS011;3780;42.424;25.636;2023-04-06T11:17:29;18.60;;;8.02;;
7477;SDS011;3780;42.424;25.636;2023-04-06T11:19:55;7.70;;;6.03;;
7477;SDS011;3780;42.424;25.636;2023-04-06T11:22:20;7.90;;;5.68;;
7477;SDS011;3780;42.424;25.636;2023-04-06T11:24:45;6.63;;;5.50;;
7477;SDS011;3780;42.424;25.636;2023-04-06T11:27:11;7.53;;;5.47;;
7477;SDS011;3780;42.424;25.636;2023-04-06T11:29:36;7.32;;;5.30;;
7477;SDS011;3780;42.424;25.636;2023-04-06T11:32:06;9.25;;;6.05;;
7477;SDS011;3780;42.424;25.636;2023-04-06T11:34:39;9.40;;;5.65;;
7477;SDS011;3780;42.424;25.636;2023-04-06T11:37:10;6.45;;;5.25;;
7477;SDS011;3780;42.424;25.636;2023-04-06T11:39:40;6.95;;;5.38;;
7477;SDS011;3780;42.424;25.636;2023-04-06T11:42:06;7.40;;;6.07;;
7477;SDS011;3780;42.424;25.636;2023-04-06T11:47:07;11.00;;;5.90;;
7477;SDS011;3780;42.424;25.636;2023-04-06T11:49:33;15.85;;;7.40;;
7477;SDS011;3780;42.424;25.636;2023-04-06T11:51:59;15.15;;;8.00;;
7477;SDS011;3780;42.424;25.636;2023-04-06T11:54:31;13.05;;;6.80;;
7477;SDS011;3780;42.424;25.636;2023-04-06T11:56:57;15.50;;;6.45;;
7477;SDS011;3780;42.424;25.636;2023-04-06T11:59:23;8.02;;;5.82;;
7477;SDS011;3780;42.424;25.636;2023-04-06T12:01:48;14.93;;;9.13;;
7477;SDS011;3780;42.424;25.636;2023-04-06T12:04:13;8.20;;;6.68;;
7477;SDS011;3780;42.424;25.636;2023-04-06T12:06:39;7.82;;;6.55;;
7477;SDS011;3780;42.424;25.636;2023-04-06T12:09:05;10.73;;;6.88;;
7477;SDS011;3780;42.424;25.636;2023-04-06T12:11:30;8.95;;;6.53;;
7477;SDS011;3780;42.424;25.636;2023-04-06T12:13:55;12.70;;;6.85;;
7477;SDS011;3780;42.424;25.636;2023-04-06T12:16:21;10.60;;;6.65;;
7477;SDS011;3780;42.424;25.636;2023-04-06T12:18:46;10.75;;;6.75;;
7477;SDS011;3780;42.424;25.636;2023-04-06T12:21:11;11.30;;;6.80;;
7477;SDS011;3780;42.424;25.636;2023-04-06T12:23:37;9.32;;;5.82;;
7477;SDS011;3780;42.424;25.636;2023-04-06T12:26:08;11.13;;;6.47;;
7477;SDS011;3780;42.424;25.636;2023-04-06T12:28:33;12.63;;;7.05;;
7477;SDS011;3780;42.424;25.636;2023-04-06T12:30:59;13.35;;;7.15;;
7477;SDS011;3780;42.424;25.636;2023-04-06T12:33:24;7.00;;;5.70;;
7477;SDS011;3780;42.424;25.636;2023-04-06T12:35:50;12.50;;;6.65;;
7477;SDS011;3780;42.424;25.636;2023-04-06T12:38:15;10.50;;;6.63;;
7477;SDS011;3780;42.424;25.636;2023-04-06T12:40:41;22.83;;;15.10;;
7477;SDS011;3780;42.424;25.636;2023-04-06T12:43:06;17.13;;;14.50;;
7477;SDS011;3780;42.424;25.636;2023-04-06T12:45:32;12.05;;;9.32;;
7477;SDS011;3780;42.424;25.636;2023-04-06T12:47:57;14.52;;;8.57;;
7477;SDS011;3780;42.424;25.636;2023-04-06T12:50:23;7.53;;;6.72;;
7477;SDS011;3780;42.424;25.636;2023-04-06T12:52:48;9.32;;;7.35;;
7477;SDS011;3780;42.424;25.636;2023-04-06T12:55:14;12.35;;;7.70;;
7477;SDS011;3780;42.424;25.636;2023-04-06T12:57:40;13.27;;;7.55;;
7477;SDS011;3780;42.424;25.636;2023-04-06T13:00:06;12.20;;;8.38;;
7477;SDS011;3780;42.424;25.636;2023-04-06T13:02:32;11.10;;;9.00;;
7477;SDS011;3780;42.424;25.636;2023-04-06T13:04:58;12.20;;;8.65;;
7477;SDS011;3780;42.424;25.636;2023-04-06T13:07:23;11.77;;;7.35;;
7477;SDS011;3780;42.424;25.636;2023-04-06T13:09:48;12.88;;;8.02;;
7477;SDS011;3780;42.424;25.636;2023-04-06T13:12:15;9.07;;;7.47;;
7477;SDS011;3780;42.424;25.636;2023-04-06T13:14:40;11.07;;;7.05;;
7477;SDS011;3780;42.424;25.636;2023-04-06T13:17:06;11.00;;;7.90;;
7477;SDS011;3780;42.424;25.636;2023-04-06T13:19:31;16.38;;;8.68;;
7477;SDS011;3780;42.424;25.636;2023-04-06T13:21:57;11.80;;;8.13;;
7477;SDS011;3780;42.424;25.636;2023-04-06T13:24:22;16.45;;;8.48;;
7477;SDS011;3780;42.424;25.636;2023-04-06T13:26:48;11.05;;;8.25;;
7477;SDS011;3780;42.424;25.636;2023-04-06T13:29:13;8.85;;;6.97;;
7477;SDS011;3780;42.424;25.636;2023-04-06T13:31:39;7.00;;;6.32;;
7477;SDS011;3780;42.424;25.636;2023-04-06T13:34:04;7.50;;;6.03;;
7477;SDS011;3780;42.424;25.636;2023-04-06T13:36:30;17.95;;;7.57;;
7477;SDS011;3780;42.424;25.636;2023-04-06T13:38:56;9.20;;;6.38;;
7477;SDS011;3780;42.424;25.636;2023-04-06T13:41:22;22.15;;;9.20;;
7477;SDS011;3780;42.424;25.636;2023-04-06T13:43:48;23.58;;;8.48;;
7477;SDS011;3780;42.424;25.636;2023-04-06T13:46:13;8.73;;;6.28;;
7477;SDS011;3780;42.424;25.636;2023-04-06T13:48:38;8.15;;;6.60;;
7477;SDS011;3780;42.424;25.636;2023-04-06T13:51:13;7.88;;;5.60;;
7477;SDS011;3780;42.424;25.636;2023-04-06T13:53:39;11.07;;;7.03;;
7477;SDS011;3780;42.424;25.636;2023-04-06T13:56:04;13.25;;;6.72;;
7477;SDS011;3780;42.424;25.636;2023-04-06T13:58:30;10.98;;;6.57;;
7477;SDS011;3780;42.424;25.636;2023-04-06T14:01:01;10.05;;;6.82;;
7477;SDS011;3780;42.424;25.636;2023-04-06T14:03:27;12.07;;;6.87;;
7477;SDS011;3780;42.424;25.636;2023-04-06T14:05:52;8.80;;;6.65;;
7477;SDS011;3780;42.424;25.636;2023-04-06T14:08:20;8.90;;;6.28;;
7477;SDS011;3780;42.424;25.636;2023-04-06T14:10:45;10.95;;;5.38;;
7477;SDS011;3780;42.424;25.636;2023-04-06T14:13:11;8.65;;;5.50;;
7477;SDS011;3780;42.424;25.636;2023-04-06T14:15:36;8.80;;;6.50;;
7477;SDS011;3780;42.424;25.636;2023-04-06T14:18:02;32.50;;;15.75;;
7477;SDS011;3780;42.424;25.636;2023-04-06T14:20:27;6.07;;;4.85;;
7477;SDS011;3780;42.424;25.636;2023-04-06T14:22:53;7.47;;;5.55;;
7477;SDS011;3780;42.424;25.636;2023-04-06T14:25:19;11.90;;;6.00;;
7477;SDS011;3780;42.424;25.636;2023-04-06T14:27:45;10.95;;;6.10;;
7477;SDS011;3780;42.424;25.636;2023-04-06T14:30:10;7.78;;;6.15;;
7477;SDS011;3780;42.424;25.636;2023-04-06T14:32:36;8.85;;;6.07;;
7477;SDS011;3780;42.424;25.636;2023-04-06T14:35:02;12.70;;;6.53;;
7477;SDS011;3780;42.424;25.636;2023-04-06T14:37:28;8.75;;;6.55;;
7477;SDS011;3780;42.424;25.636;2023-04-06T14:39:53;17.38;;;7.80;;
7477;SDS011;3780;42.424;25.636;2023-04-06T14:42:18;12.80;;;6.45;;
7477;SDS011;3780;42.424;25.636;2023-04-06T14:44:43;12.70;;;6.25;;
7477;SDS011;3780;42.424;25.636;2023-04-06T14:47:10;9.90;;;6.65;;
7477;SDS011;3780;42.424;25.636;2023-04-06T14:49:35;11.82;;;6.15;;